createdAt,value
2023-04-26T04:49:54.094Z,35.42
2023-04-26T04:50:56.152Z,30.38
2023-04-26T04:52:01.243Z,31.73
2023-04-26T04:53:04.029Z,32.13
2023-04-26T04:54:15.404Z,32.30
2023-04-26T04:55:17.889Z,31.65
2023-04-26T04:56:22.803Z,33.28
2023-04-26T04:57:24.903Z,35.88
2023-04-26T04:58:29.597Z,40.13
2023-04-26T04:59:31.717Z,36.55
2023-04-26T05:00:38.154Z,32.30
2023-04-26T05:01:40.298Z,33.10
2023-04-26T05:02:45.192Z,31.75
2023-04-26T05:03:47.414Z,30.63
2023-04-26T05:04:55.729Z,31.45
2023-04-26T05:05:57.862Z,31.05
2023-04-26T05:07:02.482Z,33.33
2023-04-26T05:08:07.778Z,29.45
2023-04-26T05:09:12.699Z,31.00
2023-04-26T05:10:15.915Z,32.55
2023-04-26T05:11:21.054Z,31.65
2023-04-26T05:12:23.856Z,31.00
2023-04-26T05:13:28.539Z,33.67
2023-04-26T05:14:30.685Z,33.50
2023-04-26T05:15:35.408Z,45.80
2023-04-26T05:16:38.597Z,35.60
2023-04-26T05:17:45.094Z,38.50
2023-04-26T05:19:18.253Z,43.00
2023-04-26T05:20:22.993Z,34.45
2023-04-26T05:21:27.633Z,36.13
2023-04-26T05:22:29.734Z,34.30
2023-04-26T05:23:34.649Z,37.85
2023-04-26T05:24:36.738Z,36.13
2023-04-26T05:25:42.137Z,34.30
2023-04-26T05:26:44.211Z,37.40
2023-04-26T05:27:48.958Z,38.83
2023-04-26T05:28:51.285Z,42.13
2023-04-26T05:29:56.014Z,42.58
2023-04-26T05:30:58.312Z,41.28
2023-04-26T05:32:03.117Z,36.25
2023-04-26T05:33:05.357Z,31.98
2023-04-26T05:34:10.098Z,31.02
2023-04-26T05:35:18.541Z,30.60
2023-04-26T05:36:29.148Z,31.38
2023-04-26T05:38:08.392Z,33.00
2023-04-26T05:39:13.240Z,30.63
2023-04-26T05:40:15.769Z,39.10
2023-04-26T05:41:20.448Z,32.72
2023-04-26T05:42:22.527Z,34.75
2023-04-26T05:43:27.206Z,31.17
2023-04-26T05:44:29.330Z,34.17
2023-04-26T05:45:34.140Z,37.20
2023-04-26T05:46:36.212Z,35.60
2023-04-26T05:47:40.942Z,34.08
2023-04-26T05:48:43.066Z,33.25
2023-04-26T05:49:47.747Z,39.25
2023-04-26T05:50:52.736Z,46.33
2023-04-26T05:51:59.706Z,31.98
2023-04-26T05:53:04.383Z,34.70
2023-04-26T05:54:06.566Z,39.05
2023-04-26T05:55:13.645Z,33.75
2023-04-26T05:56:15.902Z,30.90
2023-04-26T05:57:20.901Z,29.55
2023-04-26T05:58:25.673Z,31.88
2023-04-26T05:59:33.783Z,29.73
2023-04-26T06:00:38.884Z,32.17
2023-04-26T06:01:43.625Z,29.70
2023-04-26T06:02:47.180Z,32.47
2023-04-26T06:03:53.317Z,33.80
2023-04-26T06:05:00.216Z,29.35
2023-04-26T06:07:29.916Z,37.15
2023-04-26T06:08:36.602Z,38.00
2023-04-26T06:09:41.319Z,32.80
2023-04-26T06:11:16.221Z,37.13
2023-04-26T06:12:18.314Z,27.77
2023-04-26T06:13:23.417Z,28.73
2023-04-26T06:14:30.548Z,28.00
2023-04-26T06:15:36.001Z,30.00
2023-04-26T06:16:38.139Z,30.80
2023-04-26T06:17:43.587Z,33.90
2023-04-26T06:18:48.299Z,26.88
2023-04-26T06:19:50.557Z,25.55
2023-04-26T06:20:55.239Z,25.55
2023-04-26T06:21:57.446Z,21.70
2023-04-26T06:23:04.889Z,20.98
2023-04-26T06:24:08.961Z,24.42
2023-04-26T06:25:13.664Z,20.98
2023-04-26T06:26:15.829Z,20.73
2023-04-26T06:27:20.518Z,22.80
2023-04-26T06:28:25.251Z,18.75
2023-04-26T06:29:27.419Z,19.92
2023-04-26T06:30:32.411Z,20.85
2023-04-26T06:31:34.781Z,21.33
2023-04-26T06:32:41.531Z,21.27
2023-04-26T06:33:46.287Z,24.67
2023-04-26T06:34:48.457Z,25.05
2023-04-26T06:35:53.252Z,26.25
2023-04-26T06:38:52.990Z,29.67
2023-04-26T06:39:55.115Z,24.48
2023-04-26T06:40:59.847Z,23.70
2023-04-26T06:42:04.909Z,23.30
2023-04-26T06:43:07.153Z,22.73
2023-04-26T06:44:12.053Z,32.75
2023-04-26T06:45:17.254Z,20.08
2023-04-26T06:46:22.088Z,21.17
2023-04-26T06:47:24.228Z,20.17
2023-04-26T06:48:28.954Z,19.55
2023-04-26T06:49:31.076Z,23.50
2023-04-26T06:50:35.782Z,19.23
2023-04-26T06:51:37.904Z,20.92
2023-04-26T06:52:42.602Z,25.15
2023-04-26T06:53:44.698Z,22.23
2023-04-26T06:54:56.998Z,19.73
2023-04-26T06:56:02.399Z,16.40
2023-04-26T06:57:07.242Z,22.17
2023-04-26T06:58:12.161Z,18.25
2023-04-26T06:59:14.229Z,13.98
2023-04-26T07:00:19.604Z,15.25
2023-04-26T07:01:24.347Z,18.13
2023-04-26T07:02:29.175Z,17.30
2023-04-26T07:03:34.583Z,16.60
2023-04-26T07:04:39.710Z,16.40
2023-04-26T07:05:41.968Z,24.13
2023-04-26T07:06:46.662Z,19.75
2023-04-26T07:07:51.494Z,19.98
2023-04-26T07:08:56.241Z,19.58
2023-04-26T07:10:04.164Z,18.55
2023-04-26T07:11:12.960Z,17.60
2023-04-26T07:12:15.367Z,14.73
2023-04-26T07:13:20.023Z,20.38
2023-04-26T07:14:22.162Z,16.23
2023-04-26T07:15:26.840Z,17.40
2023-04-26T07:16:29.017Z,15.98
2023-04-26T07:17:34.059Z,16.02
2023-04-26T07:18:38.810Z,14.88
2023-04-26T07:19:43.591Z,18.33
2023-04-26T07:20:48.311Z,15.15
2023-04-26T07:21:50.599Z,19.63
2023-04-26T07:22:55.288Z,19.08
2023-04-26T07:26:17.159Z,23.20
2023-04-26T07:27:25.017Z,13.50
2023-04-26T07:28:29.756Z,14.07
2023-04-26T07:29:34.457Z,15.88
2023-04-26T07:30:36.657Z,17.63
2023-04-26T07:31:41.855Z,15.27
2023-04-26T07:32:44.026Z,34.97
2023-04-26T07:33:49.238Z,23.48
2023-04-26T07:34:53.994Z,18.98
2023-04-26T07:35:56.853Z,18.17
2023-04-26T07:37:01.763Z,15.55
2023-04-26T07:38:04.509Z,17.88
2023-04-26T07:39:10.530Z,17.23
2023-04-26T07:40:16.670Z,16.48
2023-04-26T07:41:18.736Z,15.23
2023-04-26T07:42:26.007Z,19.95
2023-04-26T07:43:31.258Z,18.10
2023-04-26T07:44:36.014Z,17.20
2023-04-26T07:45:40.797Z,22.27
2023-04-26T07:46:46.210Z,20.48
2023-04-26T07:47:51.036Z,22.02
2023-04-26T07:48:55.678Z,22.67
2023-04-26T07:50:00.332Z,19.65
2023-04-26T07:51:08.350Z,24.23
2023-04-26T07:52:13.389Z,22.88
2023-04-26T07:53:15.561Z,17.80
2023-04-26T07:54:20.466Z,19.38
2023-04-26T07:55:22.686Z,20.23
2023-04-26T07:56:27.548Z,18.52
2023-04-26T07:57:34.883Z,19.88
2023-04-26T07:58:39.310Z,19.90
2023-04-26T07:59:44.094Z,21.30
2023-04-26T08:00:48.863Z,22.25
2023-04-26T08:01:53.835Z,22.80
2023-04-26T08:02:56.140Z,17.05
2023-04-26T08:04:01.603Z,24.23
2023-04-26T08:05:04.591Z,18.23
2023-04-26T08:06:09.986Z,17.50
2023-04-26T08:07:12.087Z,25.60
2023-04-26T08:08:18.906Z,67.65
2023-04-26T08:09:21.589Z,76.88
2023-04-26T08:10:26.515Z,36.17
2023-04-26T08:11:28.698Z,22.30
2023-04-26T08:12:36.400Z,26.10
2023-04-26T08:13:38.719Z,21.90
2023-04-26T08:15:28.417Z,576.70
2023-04-26T08:16:33.176Z,349.52
2023-04-26T08:17:35.358Z,283.23
2023-04-26T08:18:40.092Z,144.10
2023-04-26T08:19:42.311Z,222.85
2023-04-26T08:20:47.039Z,190.40
2023-04-26T08:21:49.156Z,132.00
2023-04-26T08:22:58.402Z,179.02
2023-04-26T08:24:00.614Z,491.65
2023-04-26T08:25:05.903Z,198.60
2023-04-26T08:26:10.631Z,142.48
2023-04-26T08:27:12.734Z,16.30
2023-04-26T08:28:20.056Z,18.33
2023-04-26T08:29:23.759Z,19.58
2023-04-26T08:30:28.433Z,162.07
2023-04-26T08:31:33.550Z,123.85
2023-04-26T08:32:38.713Z,19.73
2023-04-26T08:33:40.941Z,19.98
2023-04-26T08:34:45.609Z,23.77
2023-04-26T08:35:50.305Z,20.90
2023-04-26T08:36:52.462Z,24.02
2023-04-26T08:37:57.231Z,23.13
2023-04-26T08:39:01.905Z,21.23
2023-04-26T08:40:04.985Z,17.25
2023-04-26T08:41:14.627Z,18.67
2023-04-26T08:42:17.913Z,18.95
2023-04-26T08:43:27.602Z,33.20
2023-04-26T08:44:34.548Z,23.70
2023-04-26T08:45:43.727Z,20.17
2023-04-26T08:46:56.333Z,26.00
2023-04-26T08:48:06.650Z,18.45
2023-04-26T08:49:16.580Z,24.02
2023-04-26T08:50:23.956Z,16.90
2023-04-26T08:51:27.646Z,15.68
2023-04-26T08:52:33.946Z,21.80
2023-04-26T08:53:40.129Z,17.40
2023-04-26T08:54:45.057Z,19.25
2023-04-26T08:55:48.624Z,30.35
2023-04-26T08:56:54.614Z,17.40
2023-04-26T08:57:59.623Z,23.20
2023-04-26T08:59:06.948Z,19.52
2023-04-26T09:00:10.670Z,18.13
2023-04-26T09:01:18.158Z,16.98
2023-04-26T09:02:22.754Z,15.23
2023-04-26T09:03:28.460Z,15.88
2023-04-26T09:04:31.827Z,15.65
2023-04-26T09:05:37.529Z,17.33
2023-04-26T09:06:39.877Z,14.07
2023-04-26T09:07:45.937Z,14.77
2023-04-26T09:08:48.594Z,16.35
2023-04-26T09:09:53.655Z,18.80
2023-04-26T09:10:58.335Z,22.13
2023-04-26T09:12:01.872Z,18.35
2023-04-26T09:13:06.603Z,17.83
2023-04-26T09:14:11.289Z,18.35
2023-04-26T09:15:18.286Z,26.00
2023-04-26T09:16:20.477Z,22.20
2023-04-26T09:17:29.624Z,19.55
2023-04-26T09:18:34.363Z,18.55
2023-04-26T09:19:37.692Z,20.85
2023-04-26T09:20:42.746Z,19.50
2023-04-26T09:21:48.305Z,24.55
2023-04-26T09:22:54.797Z,24.75
2023-04-26T09:24:04.651Z,21.58
2023-04-26T09:25:10.799Z,30.45
2023-04-26T09:26:16.481Z,16.38
2023-04-26T09:27:22.204Z,21.35
2023-04-26T09:28:27.645Z,243.82
2023-04-26T09:29:32.336Z,105.90
2023-04-26T09:30:42.280Z,15.63
2023-04-26T09:31:49.314Z,14.05
2023-04-26T09:32:57.451Z,16.33
2023-04-26T09:34:00.353Z,13.27
2023-04-26T09:35:05.034Z,13.13
2023-04-26T09:36:15.868Z,15.55
2023-04-26T09:37:18.024Z,18.42
2023-04-26T09:38:22.702Z,342.23
2023-04-26T09:39:32.976Z,879.75
2023-04-26T09:40:41.174Z,873.65
2023-04-26T09:41:44.508Z,739.80
2023-04-26T09:42:49.319Z,503.25
2023-04-26T09:43:55.602Z,77.40
2023-04-26T09:45:10.717Z,29.98
2023-04-26T09:46:25.930Z,23.38
2023-04-26T09:47:28.107Z,85.68
2023-04-26T09:48:35.481Z,28.60
2023-04-26T09:49:45.429Z,18.25
2023-04-26T09:50:50.597Z,19.35
2023-04-26T09:52:00.948Z,143.93
2023-04-26T09:53:05.925Z,853.80
2023-04-26T09:54:08.019Z,489.40
2023-04-26T09:55:19.044Z,125.75
2023-04-26T09:56:36.402Z,51.97
2023-04-26T09:57:44.375Z,37.42
2023-04-26T09:59:01.391Z,20.17
2023-04-26T10:00:13.303Z,16.33
2023-04-26T10:01:16.643Z,13.30
2023-04-26T10:02:23.689Z,14.98
2023-04-26T10:03:28.941Z,13.25
2023-04-26T10:04:32.052Z,13.02
2023-04-26T10:05:36.978Z,17.52
2023-04-26T10:06:39.517Z,14.48
2023-04-26T10:07:44.734Z,13.77
2023-04-26T10:08:47.112Z,20.48
2023-04-26T10:09:52.903Z,15.35
2023-04-26T10:10:58.318Z,17.70
2023-04-26T10:12:01.083Z,18.55
2023-04-26T10:13:06.554Z,16.00
2023-04-26T10:14:08.823Z,11.68
2023-04-26T10:15:16.354Z,13.82
2023-04-26T10:16:21.908Z,12.27
2023-04-26T10:17:26.767Z,16.92
2023-04-26T10:18:31.680Z,13.48
2023-04-26T10:19:36.158Z,12.93
2023-04-26T10:20:44.808Z,12.82
2023-04-26T10:21:48.961Z,16.67
2023-04-26T10:23:01.295Z,16.27
2023-04-26T10:24:04.153Z,14.05
2023-04-26T10:25:12.028Z,12.63
2023-04-26T10:26:50.056Z,12.63
2023-04-26T10:27:52.891Z,16.50
2023-04-26T10:29:02.473Z,15.45
2023-04-26T10:30:09.917Z,12.82
2023-04-26T10:31:17.318Z,11.73
2023-04-26T10:32:20.104Z,9.80
2023-04-26T10:33:25.148Z,9.02
2023-04-26T10:34:27.544Z,9.63
2023-04-26T10:35:33.272Z,9.82
2023-04-26T10:37:16.365Z,10.93
2023-04-26T10:38:18.662Z,11.52
2023-04-26T10:39:25.455Z,11.13
2023-04-26T10:40:29.300Z,11.85
2023-04-26T10:41:36.243Z,10.80
2023-04-26T10:42:41.628Z,12.50
2023-04-26T10:43:43.950Z,14.18
2023-04-26T10:44:48.682Z,14.20
2023-04-26T10:45:51.365Z,14.07
2023-04-26T10:46:58.747Z,11.38
2023-04-26T10:48:20.388Z,10.23
2023-04-26T10:49:26.716Z,12.15
2023-04-26T10:50:32.067Z,12.40
2023-04-26T10:51:35.601Z,11.18
2023-04-26T10:54:13.339Z,34.67
2023-04-26T10:55:42.012Z,13.20
2023-04-26T10:56:54.862Z,24.55
2023-04-26T10:58:00.121Z,20.38
2023-04-26T11:02:15.756Z,217.40
2023-04-26T11:03:20.713Z,609.22
2023-04-26T11:04:22.961Z,963.28
2023-04-26T11:05:51.019Z,922.15
2023-04-26T11:06:58.106Z,947.05
2023-04-26T11:08:09.168Z,994.97
2023-04-26T11:09:39.810Z,983.30
2023-04-26T11:10:42.567Z,829.78
2023-04-26T11:11:55.837Z,486.17
2023-04-26T11:13:01.830Z,82.63
2023-04-26T11:14:06.573Z,599.65
2023-04-26T11:15:09.641Z,884.88
2023-04-26T11:18:09.464Z,745.60
2023-04-26T11:20:11.652Z,430.80
2023-04-26T11:21:19.037Z,53.30
2023-04-26T11:22:22.834Z,331.75
2023-04-26T11:23:29.012Z,350.73
2023-04-26T11:24:36.840Z,105.22
2023-04-26T11:25:40.121Z,148.20
2023-04-26T11:26:44.916Z,662.38
2023-04-26T11:27:47.011Z,978.97
2023-04-26T11:28:52.335Z,899.90
2023-04-26T11:29:55.204Z,924.35
2023-04-26T11:30:59.916Z,410.00
2023-04-26T11:32:02.799Z,261.15
2023-04-26T11:33:19.240Z,876.70
2023-04-26T11:34:23.205Z,837.17
2023-04-26T11:35:30.033Z,184.98
2023-04-26T11:36:34.941Z,22.63
2023-04-26T11:37:37.100Z,36.72
2023-04-26T11:38:41.854Z,22.50
2023-04-26T11:39:45.853Z,61.10
2023-04-26T11:40:56.382Z,130.63
2023-04-26T11:42:06.004Z,908.55
2023-04-26T11:43:11.723Z,850.10
2023-04-26T11:44:16.929Z,627.13
2023-04-26T11:45:19.086Z,582.22
2023-04-26T11:46:24.857Z,508.30
2023-04-26T11:47:30.952Z,667.10
2023-04-26T11:48:41.100Z,414.15
2023-04-26T11:49:52.201Z,860.65
2023-04-26T11:50:57.417Z,630.00
2023-04-26T11:52:00.218Z,858.35
2023-04-26T11:53:07.620Z,673.60
2023-04-26T11:54:09.855Z,757.30
2023-04-26T11:55:15.052Z,940.17
2023-04-26T11:56:20.789Z,985.72
2023-04-26T11:57:22.833Z,971.88
2023-04-26T11:58:27.619Z,956.25
2023-04-26T11:59:33.786Z,971.60
2023-04-26T12:00:36.103Z,963.92
2023-04-26T12:01:40.996Z,947.35
2023-04-26T12:02:46.717Z,932.33
2023-04-26T12:03:56.626Z,926.47
2023-04-26T12:04:59.791Z,946.00
2023-04-26T12:06:04.948Z,950.95
2023-04-26T12:07:07.747Z,902.42
2023-04-26T12:08:13.459Z,905.28
2023-04-26T12:09:15.707Z,916.92
2023-04-26T12:10:21.737Z,825.10
2023-04-26T12:11:26.487Z,774.92
2023-04-26T12:12:28.623Z,297.52
2023-04-26T12:13:33.358Z,737.30
2023-04-26T12:14:36.869Z,831.50
2023-04-26T12:15:42.201Z,247.70
2023-04-26T12:16:47.089Z,999.53
2023-04-26T12:17:53.157Z,677.33
2023-04-26T12:19:00.655Z,577.00
2023-04-26T12:20:10.279Z,364.20
2023-04-26T12:21:14.935Z,311.58
2023-04-26T12:22:24.160Z,633.17
2023-04-26T12:23:27.642Z,650.22
2023-04-26T12:24:35.077Z,902.95
2023-04-26T12:25:41.212Z,965.85
2023-04-26T12:26:44.978Z,984.20
2023-04-26T12:27:49.680Z,999.03
2023-04-26T12:28:54.334Z,457.00
2023-04-26T12:29:56.348Z,373.15
2023-04-26T12:31:01.698Z,613.75
2023-04-26T12:32:06.792Z,962.80
2023-04-26T12:33:17.033Z,879.88
2023-04-26T12:36:17.021Z,384.35
2023-04-26T12:37:49.968Z,261.30
2023-04-26T12:38:56.556Z,514.25
2023-04-26T12:39:58.805Z,664.40
2023-04-26T12:41:03.691Z,472.80
2023-04-26T12:42:06.641Z,920.55
2023-04-26T12:43:11.464Z,986.83
2023-04-26T12:44:14.586Z,999.90
2023-04-26T12:45:20.079Z,999.90
2023-04-26T12:46:22.281Z,999.90
2023-04-26T12:47:27.236Z,999.90
2023-04-26T12:48:29.309Z,990.60
2023-04-26T12:49:33.928Z,999.90
2023-04-26T12:50:38.728Z,999.90
2023-04-26T12:51:46.362Z,974.42
2023-04-26T12:52:51.062Z,842.55
2023-04-26T12:53:56.121Z,604.97
2023-04-26T12:54:58.272Z,604.88
2023-04-26T12:56:03.100Z,523.60
2023-04-26T12:57:06.376Z,939.78
2023-04-26T12:58:11.388Z,894.25
2023-04-26T12:59:16.548Z,574.40
2023-04-26T13:00:21.979Z,421.25
2023-04-26T13:01:24.063Z,319.75
2023-04-26T13:02:28.985Z,327.08
2023-04-26T13:03:34.076Z,643.80
2023-04-26T13:04:39.080Z,702.47
2023-04-26T13:06:18.489Z,714.85
2023-04-26T13:07:26.046Z,718.38
2023-04-26T13:08:31.685Z,461.08
2023-04-26T13:09:33.743Z,426.48
2023-04-26T13:10:38.403Z,620.03
2023-04-26T13:11:43.553Z,999.90
2023-04-26T13:12:48.254Z,33.90
2023-04-26T13:13:50.565Z,21.63
2023-04-26T13:14:55.321Z,26.60
2023-04-26T13:15:57.970Z,24.60
2023-04-26T13:17:03.983Z,20.70
2023-04-26T13:18:08.807Z,18.70
2023-04-26T13:19:11.040Z,24.25
2023-04-26T13:20:16.417Z,19.05
2023-04-26T13:21:18.542Z,26.67
2023-04-26T13:22:25.991Z,26.92
2023-04-26T13:23:30.872Z,28.98
2023-04-26T13:24:32.945Z,24.05
2023-04-26T13:25:37.970Z,115.93
2023-04-26T13:26:40.006Z,198.70
2023-04-26T13:27:44.708Z,475.60
2023-04-26T13:28:47.725Z,362.75
2023-04-26T13:29:52.592Z,381.83
2023-04-26T13:30:57.391Z,624.45
2023-04-26T13:31:59.827Z,543.55
2023-04-26T13:33:05.020Z,85.03
2023-04-26T13:34:07.391Z,19.00
2023-04-26T13:35:12.594Z,23.38
2023-04-26T13:36:15.993Z,700.33
2023-04-26T13:37:21.655Z,999.90
2023-04-26T13:38:30.167Z,999.90
2023-04-26T13:39:36.403Z,854.38
2023-04-26T13:40:41.066Z,14.38
2023-04-26T13:41:43.463Z,17.23
2023-04-26T13:42:48.115Z,20.20
2023-04-26T13:43:50.252Z,18.92
2023-04-26T13:44:54.891Z,19.58
2023-04-26T13:45:57.070Z,203.43
2023-04-26T13:47:02.041Z,804.20
2023-04-26T13:48:04.531Z,327.77
2023-04-26T13:49:10.439Z,15.25
2023-04-26T13:50:15.266Z,16.58
2023-04-26T13:51:17.414Z,13.77
2023-04-26T13:52:22.415Z,14.65
2023-04-26T13:53:29.685Z,15.35
2023-04-26T13:54:31.911Z,16.38
2023-04-26T13:55:37.033Z,16.17
2023-04-26T13:56:42.247Z,20.63
2023-04-26T13:57:44.303Z,14.15
2023-04-26T13:58:49.569Z,15.65
2023-04-26T13:59:51.686Z,18.42
2023-04-26T14:00:56.329Z,18.75
2023-04-26T14:01:59.248Z,14.20
2023-04-26T14:03:04.288Z,20.77
2023-04-26T14:04:07.698Z,438.42
2023-04-26T14:05:13.234Z,146.75
2023-04-26T14:06:15.368Z,671.17
2023-04-26T14:07:20.042Z,217.23
2023-04-26T14:08:22.412Z,382.17
2023-04-26T14:09:30.269Z,229.95
2023-04-26T14:10:32.797Z,30.17
2023-04-26T14:11:37.490Z,29.77
2023-04-26T14:12:39.961Z,35.70
2023-04-26T14:13:44.705Z,186.27
2023-04-26T14:14:49.320Z,472.48
2023-04-26T14:15:54.073Z,133.95
2023-04-26T14:16:56.242Z,245.13
2023-04-26T14:18:01.041Z,107.28
2023-04-26T14:19:06.025Z,823.80
2023-04-26T14:20:10.791Z,150.50
2023-04-26T14:21:15.609Z,277.42
2023-04-26T14:22:20.270Z,669.72
2023-04-26T14:23:24.925Z,701.83
2023-04-26T14:24:32.161Z,867.58
2023-04-26T14:25:34.298Z,167.63
2023-04-26T14:26:38.989Z,695.67
2023-04-26T14:27:41.163Z,733.83
2023-04-26T14:28:45.874Z,646.85
2023-04-26T14:29:50.552Z,659.10
2023-04-26T14:30:52.596Z,639.30
2023-04-26T14:31:57.235Z,429.40
2023-04-26T14:33:02.023Z,347.08
2023-04-26T14:34:06.894Z,15.02
2023-04-26T14:35:19.732Z,31.08
2023-04-26T14:36:24.401Z,17.15
2023-04-26T14:37:26.594Z,20.88
2023-04-26T14:38:31.285Z,32.88
2023-04-26T14:39:35.983Z,261.65
2023-04-26T14:40:40.862Z,999.90
2023-04-26T14:41:43.423Z,861.45
2023-04-26T14:42:48.491Z,955.33
2023-04-26T14:43:53.431Z,914.13
2023-04-26T14:44:55.533Z,980.63
2023-04-26T14:46:00.187Z,999.90
2023-04-26T14:47:02.363Z,999.90
2023-04-26T14:48:07.800Z,999.90
2023-04-26T14:49:09.964Z,999.90
2023-04-26T14:50:14.667Z,999.90
2023-04-26T14:51:16.666Z,891.80
2023-04-26T14:52:21.328Z,630.63
2023-04-26T14:53:23.423Z,640.35
2023-04-26T14:54:28.136Z,513.35
2023-04-26T14:55:32.895Z,290.23
2023-04-26T14:56:37.603Z,979.97
2023-04-26T14:57:40.922Z,997.80
2023-04-26T14:58:45.634Z,999.90
2023-04-26T14:59:48.302Z,968.25
2023-04-26T15:00:53.440Z,578.65
2023-04-26T15:01:55.892Z,889.75
2023-04-26T15:03:01.612Z,765.38
2023-04-26T15:04:04.063Z,462.60
2023-04-26T15:05:10.711Z,309.85
2023-04-26T15:06:12.745Z,307.00
2023-04-26T15:07:30.749Z,999.90
2023-04-26T15:08:37.357Z,835.30
2023-04-26T15:09:39.390Z,999.90
2023-04-26T15:10:46.892Z,379.95
2023-04-26T15:11:48.902Z,862.25
2023-04-26T15:12:53.943Z,861.22
2023-04-26T15:13:55.968Z,577.13
2023-04-26T15:15:00.708Z,620.03
2023-04-26T15:16:08.079Z,536.45
2023-04-26T15:17:10.374Z,521.40
2023-04-26T15:18:15.086Z,662.03
2023-04-26T15:19:17.691Z,622.03
2023-04-26T15:20:22.548Z,665.25
2023-04-26T15:21:24.793Z,786.45
2023-04-26T15:22:29.450Z,817.22
2023-04-26T15:23:31.572Z,821.38
2023-04-26T15:24:46.384Z,984.70
2023-04-26T15:25:53.639Z,991.03
2023-04-26T15:26:55.899Z,999.90
2023-04-26T15:28:03.190Z,928.00
2023-04-26T15:29:05.312Z,852.72
2023-04-26T15:30:11.687Z,975.05
2023-04-26T15:31:16.530Z,999.90
2023-04-26T15:32:18.754Z,999.90
2023-04-26T15:33:26.712Z,999.90
2023-04-26T15:34:30.275Z,999.90
2023-04-26T15:35:35.201Z,999.90
2023-04-26T15:36:37.766Z,999.90
2023-04-26T15:37:42.411Z,999.90
2023-04-26T15:38:48.860Z,973.30
2023-04-26T15:39:51.539Z,999.78
2023-04-26T15:40:58.794Z,964.10
2023-04-26T15:42:01.043Z,868.67
2023-04-26T15:43:05.702Z,868.08
2023-04-26T15:44:07.994Z,947.15
2023-04-26T15:45:13.694Z,974.17
2023-04-26T15:46:18.373Z,999.90
2023-04-26T15:47:20.589Z,999.90
2023-04-26T15:48:26.193Z,999.65
2023-04-26T15:49:31.322Z,999.90
2023-04-26T15:50:39.383Z,998.17
2023-04-26T15:51:43.985Z,999.90
2023-04-26T15:52:48.650Z,999.90
2023-04-26T15:53:53.730Z,999.90
2023-04-26T15:54:55.761Z,999.90
2023-04-26T15:56:07.050Z,999.90
2023-04-26T15:57:09.216Z,999.90
2023-04-26T15:58:16.978Z,999.90
2023-04-26T15:59:19.367Z,999.90
2023-04-26T16:00:24.287Z,999.90
2023-04-26T16:01:26.671Z,999.90
2023-04-26T16:02:31.369Z,999.90
2023-04-26T16:03:33.865Z,999.90
2023-04-26T16:04:38.776Z,892.83
2023-04-26T16:05:40.975Z,838.58
2023-04-26T16:06:54.964Z,894.08
2023-04-26T16:07:59.867Z,999.90
2023-04-26T16:10:27.914Z,720.95
2023-04-26T16:11:32.500Z,846.60
2023-04-26T16:12:39.772Z,999.90
2023-04-26T16:13:42.605Z,999.90
2023-04-26T16:14:49.232Z,999.90
2023-04-26T16:15:52.502Z,937.47
2023-04-26T16:16:57.856Z,891.55
2023-04-26T16:18:00.854Z,999.90
2023-04-26T16:19:05.940Z,999.90
2023-04-26T16:20:12.463Z,999.90
2023-04-26T16:21:14.593Z,999.90
2023-04-26T16:22:19.261Z,999.90
2023-04-26T16:23:21.877Z,999.90
2023-04-26T16:24:26.712Z,999.90
2023-04-26T16:25:31.897Z,999.90
2023-04-26T16:26:36.702Z,999.90
2023-04-26T16:27:41.406Z,999.90
2023-04-26T16:28:44.028Z,999.90
2023-04-26T16:29:49.201Z,999.90
2023-04-26T16:30:51.482Z,999.90
2023-04-26T16:31:57.003Z,999.90
2023-04-26T16:33:02.186Z,999.90
2023-04-26T16:34:04.338Z,736.58
2023-04-26T16:35:09.987Z,891.97
2023-04-26T16:36:12.509Z,999.90
2023-04-26T16:37:17.287Z,999.90
2023-04-26T16:38:23.272Z,999.90
2023-04-26T16:39:28.848Z,999.90
2023-04-26T16:40:31.030Z,999.90
2023-04-26T16:41:35.878Z,999.90
2023-04-26T16:42:44.657Z,999.90
2023-04-26T16:43:49.777Z,835.83
2023-04-26T16:44:54.385Z,615.83
2023-04-26T16:46:00.459Z,626.00
2023-04-26T16:47:05.116Z,693.88
2023-04-26T16:48:07.267Z,531.78
2023-04-26T16:49:12.188Z,419.98
2023-04-26T16:50:17.006Z,474.65
2023-04-26T16:51:19.096Z,262.38
2023-04-26T16:52:24.164Z,39.85
2023-04-26T16:53:26.391Z,59.33
2023-04-26T16:54:31.566Z,192.90
2023-04-26T16:55:33.862Z,283.38
2023-04-26T16:56:38.836Z,381.85
2023-04-26T16:57:43.572Z,304.63
2023-04-26T16:58:48.236Z,157.18
2023-04-26T16:59:50.441Z,19.02
2023-04-26T17:00:55.468Z,19.00
2023-04-26T17:02:00.305Z,48.60
2023-04-26T17:03:02.610Z,364.60
2023-04-26T17:04:08.599Z,315.70
2023-04-26T17:05:14.726Z,999.90
2023-04-26T17:06:16.796Z,999.90
2023-04-26T17:07:22.288Z,999.90
2023-04-26T17:08:27.471Z,884.13
2023-04-26T17:09:32.157Z,215.93
2023-04-26T17:10:35.366Z,135.35
2023-04-26T17:11:43.644Z,62.90
2023-04-26T17:12:48.364Z,42.15
2023-04-26T17:13:53.077Z,16.48
2023-04-26T17:14:56.740Z,15.02
2023-04-26T17:16:01.950Z,258.77
2023-04-26T17:17:06.649Z,835.90
2023-04-26T17:18:10.345Z,916.78
2023-04-26T17:19:15.033Z,695.45
2023-04-26T17:20:17.074Z,341.25
2023-04-26T17:21:21.739Z,19.38
2023-04-26T17:22:23.836Z,14.23
2023-04-26T17:23:28.665Z,15.80
2023-04-26T17:24:33.254Z,15.90
2023-04-26T17:25:35.272Z,15.65
2023-04-26T17:26:40.071Z,17.00
2023-04-26T17:27:42.202Z,16.13
2023-04-26T17:28:49.422Z,17.40
2023-04-26T17:29:51.544Z,20.05
2023-04-26T17:30:56.252Z,21.75
2023-04-26T17:31:58.322Z,19.98
2023-04-26T17:33:03.038Z,25.25
2023-04-26T17:34:05.216Z,21.27
2023-04-26T17:35:10.487Z,20.50
2023-04-26T17:36:15.090Z,38.53
2023-04-26T17:37:17.156Z,23.67
2023-04-26T17:38:21.975Z,247.65
2023-04-26T17:39:24.067Z,143.48
2023-04-26T17:40:28.683Z,129.88
2023-04-26T17:41:30.824Z,384.13
2023-04-26T17:42:43.185Z,251.00
2023-04-26T17:43:50.478Z,504.08
2023-04-26T17:44:52.518Z,708.72
2023-04-26T17:45:57.418Z,786.70
2023-04-26T17:46:59.493Z,298.17
2023-04-26T17:48:04.452Z,398.30
2023-04-26T17:49:08.324Z,773.22
2023-04-26T17:50:14.026Z,309.63
2023-04-26T17:51:16.344Z,388.02
2023-04-26T17:52:21.075Z,276.50
2023-04-26T17:53:26.634Z,324.27
2023-04-26T17:54:28.834Z,263.17
2023-04-26T17:55:33.717Z,202.13
2023-04-26T17:56:38.449Z,69.18
2023-04-26T17:57:41.228Z,44.67
2023-04-26T17:58:46.029Z,44.78
2023-04-26T17:59:51.334Z,28.52
2023-04-26T18:00:56.067Z,19.98
2023-04-26T18:02:02.080Z,16.15
2023-04-26T18:03:07.308Z,44.25
2023-04-26T18:04:09.879Z,26.80
2023-04-26T18:05:15.553Z,19.73
2023-04-26T18:06:21.254Z,14.60
2023-04-26T18:07:24.138Z,12.55
2023-04-26T18:08:28.906Z,12.57
2023-04-26T18:09:31.424Z,13.85
2023-04-26T18:10:36.246Z,26.17
2023-04-26T18:11:40.931Z,13.60
2023-04-26T18:12:43.032Z,20.23
2023-04-26T18:13:48.152Z,13.10
2023-04-26T18:14:52.857Z,12.27
2023-04-26T18:15:57.982Z,18.60
2023-04-26T18:17:01.165Z,19.55
2023-04-26T18:18:08.148Z,33.25
2023-04-26T18:19:10.430Z,19.45
2023-04-26T18:20:16.719Z,119.63
2023-04-26T18:21:18.816Z,37.85
2023-04-26T18:22:23.558Z,20.02
2023-04-26T18:23:28.245Z,25.50
2023-04-26T18:24:32.901Z,28.27
2023-04-26T18:25:37.513Z,24.90
2023-04-26T18:26:41.163Z,30.17
2023-04-26T18:27:45.946Z,25.02
2023-04-26T18:28:48.154Z,13.63
2023-04-26T18:29:58.428Z,23.77
2023-04-26T18:31:01.117Z,22.83
2023-04-26T18:32:05.898Z,31.83
2023-04-26T18:33:23.951Z,36.80
2023-04-26T18:34:28.832Z,28.20
2023-04-26T18:35:33.537Z,26.58
2023-04-26T18:36:36.218Z,21.48
2023-04-26T18:37:42.203Z,17.67
2023-04-26T18:38:44.612Z,32.00
2023-04-26T18:39:49.407Z,23.02
2023-04-26T18:40:54.163Z,75.63
2023-04-26T18:41:59.136Z,16.45
2023-04-26T18:43:04.092Z,18.80
2023-04-26T18:44:11.922Z,27.27
2023-04-26T18:45:19.682Z,63.67
2023-04-26T18:46:21.886Z,104.47
2023-04-26T18:47:27.551Z,48.40
2023-04-26T18:48:29.869Z,127.15
2023-04-26T18:49:34.649Z,20.35
2023-04-26T18:50:36.897Z,7.65
2023-04-26T18:51:41.878Z,9.25
2023-04-26T18:52:43.996Z,12.40
2023-04-26T18:53:49.028Z,8.55
2023-04-26T18:54:51.300Z,8.52
2023-04-26T18:55:56.102Z,11.68